sensor_id;sensor_type;location;lat;lon;timestamp;P1;durP1;ratioP1;P2;durP2;ratioP2
14088;SDS011;7120;52.890;6.040;2023-05-29T00:01:22;16.63;;;4.53;;
14088;SDS011;7120;52.890;6.040;2023-05-29T00:03:49;19.07;;;4.27;;
14088;SDS011;7120;52.890;6.040;2023-05-29T00:06:15;18.23;;;4.40;;
14088;SDS011;7120;52.890;6.040;2023-05-29T00:08:40;21.97;;;4.97;;
14088;SDS011;7120;52.890;6.040;2023-05-29T00:11:06;21.73;;;5.13;;
14088;SDS011;7120;52.890;6.040;2023-05-29T00:13:32;19.63;;;4.37;;
14088;SDS011;7120;52.890;6.040;2023-05-29T00:15:57;16.70;;;4.13;;
14088;SDS011;7120;52.890;6.040;2023-05-29T00:18:24;15.07;;;4.30;;
14088;SDS011;7120;52.890;6.040;2023-05-29T00:20:50;14.20;;;4.40;;
14088;SDS011;7120;52.890;6.040;2023-05-29T00:23:17;15.07;;;7.30;;
14088;SDS011;7120;52.890;6.040;2023-05-29T00:25:43;19.20;;;4.50;;
14088;SDS011;7120;52.890;6.040;2023-05-29T00:28:09;18.37;;;4.40;;
14088;SDS011;7120;52.890;6.040;2023-05-29T00:30:34;15.33;;;4.53;;
14088;SDS011;7120;52.890;6.040;2023-05-29T00:33:00;19.87;;;4.80;;
14088;SDS011;7120;52.890;6.040;2023-05-29T00:35:25;19.80;;;4.40;;
14088;SDS011;7120;52.890;6.040;2023-05-29T00:37:52;19.53;;;4.97;;
14088;SDS011;7120;52.890;6.040;2023-05-29T00:40:17;16.87;;;4.40;;
14088;SDS011;7120;52.890;6.040;2023-05-29T00:42:42;16.93;;;4.13;;
14088;SDS011;7120;52.890;6.040;2023-05-29T00:45:08;16.70;;;8.80;;
14088;SDS011;7120;52.890;6.040;2023-05-29T00:47:34;15.60;;;4.07;;
14088;SDS011;7120;52.890;6.040;2023-05-29T00:50:00;21.03;;;5.20;;
14088;SDS011;7120;52.890;6.040;2023-05-29T00:52:26;14.90;;;3.97;;
14088;SDS011;7120;52.890;6.040;2023-05-29T00:54:54;13.10;;;4.03;;
14088;SDS011;7120;52.890;6.040;2023-05-29T00:57:19;16.83;;;5.03;;
14088;SDS011;7120;52.890;6.040;2023-05-29T00:59:45;14.43;;;4.33;;
14088;SDS011;7120;52.890;6.040;2023-05-29T01:02:12;17.30;;;3.70;;
14088;SDS011;7120;52.890;6.040;2023-05-29T01:04:38;19.50;;;4.57;;
14088;SDS011;7120;52.890;6.040;2023-05-29T01:07:04;19.53;;;4.20;;
14088;SDS011;7120;52.890;6.040;2023-05-29T01:09:30;16.07;;;4.23;;
14088;SDS011;7120;52.890;6.040;2023-05-29T01:12:16;12.67;;;4.10;;
14088;SDS011;7120;52.890;6.040;2023-05-29T01:15:14;15.57;;;4.07;;
14088;SDS011;7120;52.890;6.040;2023-05-29T01:20:40;12.90;;;4.20;;
14088;SDS011;7120;52.890;6.040;2023-05-29T01:28:32;16.93;;;12.83;;
14088;SDS011;7120;52.890;6.040;2023-05-29T01:31:02;17.97;;;3.80;;
14088;SDS011;7120;52.890;6.040;2023-05-29T01:33:30;15.03;;;4.00;;
14088;SDS011;7120;52.890;6.040;2023-05-29T01:35:55;19.77;;;4.70;;
14088;SDS011;7120;52.890;6.040;2023-05-29T01:38:20;18.37;;;3.53;;
14088;SDS011;7120;52.890;6.040;2023-05-29T01:40:46;15.73;;;4.13;;
14088;SDS011;7120;52.890;6.040;2023-05-29T01:43:12;16.80;;;3.53;;
14088;SDS011;7120;52.890;6.040;2023-05-29T01:45:38;11.90;;;3.37;;
14088;SDS011;7120;52.890;6.040;2023-05-29T01:48:04;15.80;;;4.40;;
14088;SDS011;7120;52.890;6.040;2023-05-29T01:50:31;18.70;;;4.30;;
14088;SDS011;7120;52.890;6.040;2023-05-29T01:52:56;18.10;;;4.53;;
14088;SDS011;7120;52.890;6.040;2023-05-29T01:55:22;20.43;;;4.90;;
14088;SDS011;7120;52.890;6.040;2023-05-29T01:57:47;21.83;;;4.50;;
14088;SDS011;7120;52.890;6.040;2023-05-29T02:00:14;14.43;;;4.13;;
14088;SDS011;7120;52.890;6.040;2023-05-29T02:02:41;17.63;;;3.80;;
14088;SDS011;7120;52.890;6.040;2023-05-29T02:05:07;17.97;;;4.07;;
14088;SDS011;7120;52.890;6.040;2023-05-29T02:07:34;16.83;;;3.90;;
14088;SDS011;7120;52.890;6.040;2023-05-29T02:10:01;14.77;;;3.63;;
14088;SDS011;7120;52.890;6.040;2023-05-29T02:12:27;16.70;;;4.13;;
14088;SDS011;7120;52.890;6.040;2023-05-29T02:14:53;13.20;;;3.50;;
14088;SDS011;7120;52.890;6.040;2023-05-29T02:17:19;17.90;;;4.17;;
14088;SDS011;7120;52.890;6.040;2023-05-29T02:19:45;13.50;;;3.40;;
14088;SDS011;7120;52.890;6.040;2023-05-29T02:22:11;17.73;;;3.97;;
14088;SDS011;7120;52.890;6.040;2023-05-29T02:24:37;16.20;;;5.13;;
14088;SDS011;7120;52.890;6.040;2023-05-29T02:27:02;15.83;;;3.53;;
14088;SDS011;7120;52.890;6.040;2023-05-29T02:29:28;13.97;;;3.87;;
14088;SDS011;7120;52.890;6.040;2023-05-29T02:31:53;19.77;;;4.43;;
14088;SDS011;7120;52.890;6.040;2023-05-29T02:34:18;16.70;;;5.00;;
14088;SDS011;7120;52.890;6.040;2023-05-29T02:36:44;13.70;;;4.40;;
14088;SDS011;7120;52.890;6.040;2023-05-29T02:39:09;21.60;;;4.07;;
14088;SDS011;7120;52.890;6.040;2023-05-29T02:41:34;16.50;;;4.30;;
14088;SDS011;7120;52.890;6.040;2023-05-29T02:44:00;16.70;;;3.87;;
14088;SDS011;7120;52.890;6.040;2023-05-29T02:46:25;14.70;;;4.43;;
14088;SDS011;7120;52.890;6.040;2023-05-29T02:48:51;21.37;;;4.40;;
14088;SDS011;7120;52.890;6.040;2023-05-29T02:51:16;17.90;;;3.63;;
14088;SDS011;7120;52.890;6.040;2023-05-29T02:53:41;19.70;;;4.90;;
14088;SDS011;7120;52.890;6.040;2023-05-29T02:56:07;18.33;;;4.30;;
14088;SDS011;7120;52.890;6.040;2023-05-29T02:58:34;20.10;;;4.73;;
14088;SDS011;7120;52.890;6.040;2023-05-29T03:01:00;18.87;;;4.63;;
14088;SDS011;7120;52.890;6.040;2023-05-29T03:03:28;18.00;;;4.77;;
14088;SDS011;7120;52.890;6.040;2023-05-29T03:05:54;18.30;;;3.90;;
14088;SDS011;7120;52.890;6.040;2023-05-29T03:08:20;18.77;;;4.53;;
14088;SDS011;7120;52.890;6.040;2023-05-29T03:10:45;16.00;;;4.67;;
14088;SDS011;7120;52.890;6.040;2023-05-29T03:13:12;15.47;;;4.83;;
14088;SDS011;7120;52.890;6.040;2023-05-29T03:15:37;19.07;;;4.87;;
14088;SDS011;7120;52.890;6.040;2023-05-29T03:18:03;20.67;;;5.07;;
14088;SDS011;7120;52.890;6.040;2023-05-29T03:20:28;16.83;;;4.57;;
14088;SDS011;7120;52.890;6.040;2023-05-29T03:22:53;16.83;;;4.13;;
14088;SDS011;7120;52.890;6.040;2023-05-29T03:25:19;18.27;;;4.27;;
14088;SDS011;7120;52.890;6.040;2023-05-29T03:27:46;16.03;;;4.43;;
14088;SDS011;7120;52.890;6.040;2023-05-29T03:30:12;20.90;;;4.87;;
14088;SDS011;7120;52.890;6.040;2023-05-29T03:32:37;18.37;;;4.77;;
14088;SDS011;7120;52.890;6.040;2023-05-29T03:35:03;15.53;;;4.47;;
14088;SDS011;7120;52.890;6.040;2023-05-29T03:37:29;17.57;;;4.50;;
14088;SDS011;7120;52.890;6.040;2023-05-29T03:39:54;21.77;;;4.73;;
14088;SDS011;7120;52.890;6.040;2023-05-29T03:42:20;19.87;;;4.70;;
14088;SDS011;7120;52.890;6.040;2023-05-29T03:44:45;16.70;;;4.17;;
14088;SDS011;7120;52.890;6.040;2023-05-29T03:47:11;20.13;;;5.17;;
14088;SDS011;7120;52.890;6.040;2023-05-29T03:49:36;21.53;;;4.60;;
14088;SDS011;7120;52.890;6.040;2023-05-29T03:52:02;15.73;;;4.87;;
14088;SDS011;7120;52.890;6.040;2023-05-29T03:54:27;18.37;;;4.40;;
14088;SDS011;7120;52.890;6.040;2023-05-29T03:56:53;17.40;;;5.47;;
14088;SDS011;7120;52.890;6.040;2023-05-29T03:59:18;19.23;;;5.47;;
14088;SDS011;7120;52.890;6.040;2023-05-29T04:01:43;17.27;;;4.87;;
14088;SDS011;7120;52.890;6.040;2023-05-29T04:04:09;19.43;;;5.50;;
14088;SDS011;7120;52.890;6.040;2023-05-29T04:06:34;18.57;;;5.13;;
14088;SDS011;7120;52.890;6.040;2023-05-29T04:09:04;20.10;;;4.30;;
14088;SDS011;7120;52.890;6.040;2023-05-29T04:11:31;15.93;;;4.77;;
14088;SDS011;7120;52.890;6.040;2023-05-29T04:14:02;17.57;;;4.63;;
14088;SDS011;7120;52.890;6.040;2023-05-29T04:16:28;16.73;;;4.10;;
14088;SDS011;7120;52.890;6.040;2023-05-29T04:18:54;18.17;;;4.90;;
14088;SDS011;7120;52.890;6.040;2023-05-29T04:21:20;18.80;;;4.53;;
14088;SDS011;7120;52.890;6.040;2023-05-29T04:23:46;17.07;;;4.37;;
14088;SDS011;7120;52.890;6.040;2023-05-29T04:26:11;12.50;;;3.97;;
14088;SDS011;7120;52.890;6.040;2023-05-29T04:28:38;13.73;;;4.10;;
14088;SDS011;7120;52.890;6.040;2023-05-29T04:31:03;14.57;;;4.03;;
14088;SDS011;7120;52.890;6.040;2023-05-29T04:33:30;16.13;;;3.77;;
14088;SDS011;7120;52.890;6.040;2023-05-29T04:35:57;15.53;;;3.83;;
14088;SDS011;7120;52.890;6.040;2023-05-29T04:38:23;12.57;;;3.87;;
14088;SDS011;7120;52.890;6.040;2023-05-29T04:40:51;17.20;;;4.07;;
14088;SDS011;7120;52.890;6.040;2023-05-29T04:43:17;21.90;;;5.00;;
14088;SDS011;7120;52.890;6.040;2023-05-29T04:45:42;11.47;;;3.50;;
14088;SDS011;7120;52.890;6.040;2023-05-29T04:48:08;14.53;;;4.70;;
14088;SDS011;7120;52.890;6.040;2023-05-29T04:50:33;14.53;;;3.80;;
14088;SDS011;7120;52.890;6.040;2023-05-29T04:53:00;12.20;;;3.50;;
14088;SDS011;7120;52.890;6.040;2023-05-29T04:55:25;15.03;;;3.77;;
14088;SDS011;7120;52.890;6.040;2023-05-29T04:57:51;12.93;;;3.90;;
14088;SDS011;7120;52.890;6.040;2023-05-29T05:00:18;10.97;;;3.83;;
14088;SDS011;7120;52.890;6.040;2023-05-29T05:02:43;19.07;;;3.97;;
14088;SDS011;7120;52.890;6.040;2023-05-29T05:05:10;13.47;;;4.27;;
14088;SDS011;7120;52.890;6.040;2023-05-29T05:07:36;14.50;;;4.03;;
14088;SDS011;7120;52.890;6.040;2023-05-29T05:10:02;15.93;;;3.80;;
14088;SDS011;7120;52.890;6.040;2023-05-29T05:12:28;12.33;;;3.63;;
14088;SDS011;7120;52.890;6.040;2023-05-29T05:14:53;13.20;;;4.20;;
14088;SDS011;7120;52.890;6.040;2023-05-29T05:17:19;15.10;;;4.17;;
14088;SDS011;7120;52.890;6.040;2023-05-29T05:19:45;15.37;;;4.03;;
14088;SDS011;7120;52.890;6.040;2023-05-29T05:22:11;15.00;;;4.00;;
14088;SDS011;7120;52.890;6.040;2023-05-29T05:24:36;12.97;;;3.60;;
14088;SDS011;7120;52.890;6.040;2023-05-29T05:27:01;16.03;;;3.60;;
14088;SDS011;7120;52.890;6.040;2023-05-29T05:29:27;15.60;;;3.63;;
14088;SDS011;7120;52.890;6.040;2023-05-29T05:31:52;15.13;;;4.00;;
14088;SDS011;7120;52.890;6.040;2023-05-29T05:34:17;13.00;;;4.30;;
14088;SDS011;7120;52.890;6.040;2023-05-29T05:36:43;14.43;;;3.53;;
14088;SDS011;7120;52.890;6.040;2023-05-29T05:39:08;9.70;;;3.60;;
14088;SDS011;7120;52.890;6.040;2023-05-29T05:41:34;10.70;;;3.30;;
14088;SDS011;7120;52.890;6.040;2023-05-29T05:43:59;11.23;;;3.40;;
14088;SDS011;7120;52.890;6.040;2023-05-29T05:46:24;13.67;;;3.67;;
14088;SDS011;7120;52.890;6.040;2023-05-29T05:48:50;13.80;;;3.90;;
14088;SDS011;7120;52.890;6.040;2023-05-29T05:51:16;12.73;;;3.53;;
14088;SDS011;7120;52.890;6.040;2023-05-29T05:53:42;13.00;;;4.03;;
14088;SDS011;7120;52.890;6.040;2023-05-29T05:56:07;14.43;;;4.17;;
14088;SDS011;7120;52.890;6.040;2023-05-29T05:58:33;12.47;;;3.17;;
14088;SDS011;7120;52.890;6.040;2023-05-29T06:00:58;14.90;;;3.67;;
14088;SDS011;7120;52.890;6.040;2023-05-29T06:03:24;9.70;;;3.00;;
14088;SDS011;7120;52.890;6.040;2023-05-29T06:05:49;10.87;;;3.57;;
14088;SDS011;7120;52.890;6.040;2023-05-29T06:08:17;14.17;;;3.53;;
14088;SDS011;7120;52.890;6.040;2023-05-29T06:10:42;11.53;;;3.50;;
14088;SDS011;7120;52.890;6.040;2023-05-29T06:13:08;11.47;;;3.30;;
14088;SDS011;7120;52.890;6.040;2023-05-29T06:15:34;10.70;;;3.50;;
14088;SDS011;7120;52.890;6.040;2023-05-29T06:18:00;12.87;;;3.40;;
14088;SDS011;7120;52.890;6.040;2023-05-29T06:20:26;8.87;;;3.07;;
14088;SDS011;7120;52.890;6.040;2023-05-29T06:22:51;12.77;;;3.53;;
14088;SDS011;7120;52.890;6.040;2023-05-29T06:25:17;17.10;;;3.50;;
14088;SDS011;7120;52.890;6.040;2023-05-29T06:27:46;15.53;;;3.60;;
14088;SDS011;7120;52.890;6.040;2023-05-29T06:30:12;16.07;;;3.53;;
14088;SDS011;7120;52.890;6.040;2023-05-29T06:32:38;14.07;;;3.77;;
14088;SDS011;7120;52.890;6.040;2023-05-29T06:35:03;14.93;;;4.00;;
14088;SDS011;7120;52.890;6.040;2023-05-29T06:37:31;13.37;;;3.97;;
14088;SDS011;7120;52.890;6.040;2023-05-29T06:39:56;12.77;;;3.50;;
14088;SDS011;7120;52.890;6.040;2023-05-29T06:42:22;11.00;;;3.70;;
14088;SDS011;7120;52.890;6.040;2023-05-29T06:44:47;10.50;;;3.50;;
14088;SDS011;7120;52.890;6.040;2023-05-29T06:47:12;10.77;;;3.33;;
14088;SDS011;7120;52.890;6.040;2023-05-29T06:49:38;14.93;;;3.50;;
14088;SDS011;7120;52.890;6.040;2023-05-29T06:52:03;13.83;;;4.53;;
14088;SDS011;7120;52.890;6.040;2023-05-29T06:54:28;12.13;;;3.57;;
14088;SDS011;7120;52.890;6.040;2023-05-29T06:56:54;14.90;;;3.80;;
14088;SDS011;7120;52.890;6.040;2023-05-29T06:59:19;17.97;;;4.30;;
14088;SDS011;7120;52.890;6.040;2023-05-29T07:01:45;12.43;;;3.57;;
14088;SDS011;7120;52.890;6.040;2023-05-29T07:04:11;12.50;;;4.30;;
14088;SDS011;7120;52.890;6.040;2023-05-29T07:06:36;13.80;;;3.83;;
14088;SDS011;7120;52.890;6.040;2023-05-29T07:09:01;12.40;;;3.37;;
14088;SDS011;7120;52.890;6.040;2023-05-29T07:11:27;11.57;;;3.53;;
14088;SDS011;7120;52.890;6.040;2023-05-29T07:13:55;11.23;;;3.53;;
14088;SDS011;7120;52.890;6.040;2023-05-29T07:16:21;16.53;;;3.77;;
14088;SDS011;7120;52.890;6.040;2023-05-29T07:18:46;11.70;;;3.30;;
14088;SDS011;7120;52.890;6.040;2023-05-29T07:21:12;15.03;;;3.60;;
14088;SDS011;7120;52.890;6.040;2023-05-29T07:23:37;17.03;;;4.50;;
14088;SDS011;7120;52.890;6.040;2023-05-29T07:26:02;12.93;;;3.80;;
14088;SDS011;7120;52.890;6.040;2023-05-29T07:28:27;15.30;;;3.57;;
14088;SDS011;7120;52.890;6.040;2023-05-29T07:30:53;18.47;;;4.33;;
14088;SDS011;7120;52.890;6.040;2023-05-29T07:33:18;13.67;;;3.50;;
14088;SDS011;7120;52.890;6.040;2023-05-29T07:35:44;11.40;;;3.53;;
14088;SDS011;7120;52.890;6.040;2023-05-29T07:38:09;12.40;;;4.03;;
14088;SDS011;7120;52.890;6.040;2023-05-29T07:40:35;15.77;;;4.30;;
14088;SDS011;7120;52.890;6.040;2023-05-29T07:43:00;12.30;;;3.90;;
14088;SDS011;7120;52.890;6.040;2023-05-29T07:45:26;8.67;;;3.60;;
14088;SDS011;7120;52.890;6.040;2023-05-29T07:47:52;13.67;;;3.77;;
14088;SDS011;7120;52.890;6.040;2023-05-29T07:50:17;12.93;;;4.60;;
14088;SDS011;7120;52.890;6.040;2023-05-29T07:52:43;12.03;;;4.03;;
14088;SDS011;7120;52.890;6.040;2023-05-29T07:55:09;15.50;;;4.20;;
14088;SDS011;7120;52.890;6.040;2023-05-29T07:57:34;13.87;;;3.90;;
14088;SDS011;7120;52.890;6.040;2023-05-29T08:00:00;13.37;;;4.10;;
14088;SDS011;7120;52.890;6.040;2023-05-29T08:02:27;18.37;;;4.40;;
14088;SDS011;7120;52.890;6.040;2023-05-29T08:04:52;11.43;;;4.27;;
14088;SDS011;7120;52.890;6.040;2023-05-29T08:07:18;14.30;;;4.57;;
14088;SDS011;7120;52.890;6.040;2023-05-29T08:09:43;13.13;;;4.10;;
14088;SDS011;7120;52.890;6.040;2023-05-29T08:12:08;16.13;;;4.80;;
14088;SDS011;7120;52.890;6.040;2023-05-29T08:14:34;10.40;;;3.97;;
14088;SDS011;7120;52.890;6.040;2023-05-29T08:16:59;12.07;;;4.40;;
14088;SDS011;7120;52.890;6.040;2023-05-29T08:19:24;15.37;;;4.23;;
14088;SDS011;7120;52.890;6.040;2023-05-29T08:21:50;14.97;;;4.13;;
14088;SDS011;7120;52.890;6.040;2023-05-29T08:24:15;13.87;;;4.17;;
14088;SDS011;7120;52.890;6.040;2023-05-29T08:26:41;12.53;;;4.60;;
14088;SDS011;7120;52.890;6.040;2023-05-29T08:29:08;17.53;;;4.17;;
14088;SDS011;7120;52.890;6.040;2023-05-29T08:31:34;13.33;;;4.10;;
14088;SDS011;7120;52.890;6.040;2023-05-29T08:33:59;19.10;;;4.27;;
14088;SDS011;7120;52.890;6.040;2023-05-29T08:36:24;13.27;;;3.90;;
14088;SDS011;7120;52.890;6.040;2023-05-29T08:38:50;14.07;;;4.73;;
14088;SDS011;7120;52.890;6.040;2023-05-29T08:41:21;16.17;;;4.57;;
14088;SDS011;7120;52.890;6.040;2023-05-29T08:43:50;10.73;;;4.03;;
14088;SDS011;7120;52.890;6.040;2023-05-29T08:46:17;12.03;;;4.40;;
14088;SDS011;7120;52.890;6.040;2023-05-29T08:48:43;14.67;;;4.23;;
14088;SDS011;7120;52.890;6.040;2023-05-29T08:51:14;14.83;;;4.03;;
14088;SDS011;7120;52.890;6.040;2023-05-29T08:53:44;11.47;;;3.73;;
14088;SDS011;7120;52.890;6.040;2023-05-29T08:56:11;17.97;;;4.73;;
14088;SDS011;7120;52.890;6.040;2023-05-29T08:58:36;13.33;;;4.20;;
14088;SDS011;7120;52.890;6.040;2023-05-29T09:01:02;13.17;;;4.07;;
14088;SDS011;7120;52.890;6.040;2023-05-29T09:03:28;11.27;;;3.93;;
14088;SDS011;7120;52.890;6.040;2023-05-29T09:05:57;15.93;;;4.97;;
14088;SDS011;7120;52.890;6.040;2023-05-29T09:08:24;17.30;;;4.33;;
14088;SDS011;7120;52.890;6.040;2023-05-29T09:10:51;15.63;;;4.43;;
14088;SDS011;7120;52.890;6.040;2023-05-29T09:13:16;14.63;;;4.43;;
14088;SDS011;7120;52.890;6.040;2023-05-29T09:15:41;11.77;;;4.40;;
14088;SDS011;7120;52.890;6.040;2023-05-29T09:18:10;13.17;;;3.83;;
14088;SDS011;7120;52.890;6.040;2023-05-29T09:20:36;17.43;;;4.30;;
14088;SDS011;7120;52.890;6.040;2023-05-29T09:23:03;13.43;;;4.03;;
14088;SDS011;7120;52.890;6.040;2023-05-29T09:25:31;14.07;;;4.33;;
14088;SDS011;7120;52.890;6.040;2023-05-29T09:28:04;13.33;;;4.03;;
14088;SDS011;7120;52.890;6.040;2023-05-29T09:33:05;16.63;;;4.27;;
14088;SDS011;7120;52.890;6.040;2023-05-29T09:35:36;15.30;;;6.47;;
14088;SDS011;7120;52.890;6.040;2023-05-29T09:38:05;15.70;;;4.33;;
14088;SDS011;7120;52.890;6.040;2023-05-29T09:40:32;12.97;;;4.33;;
14088;SDS011;7120;52.890;6.040;2023-05-29T09:43:02;17.30;;;3.77;;
14088;SDS011;7120;52.890;6.040;2023-05-29T09:45:29;12.07;;;3.63;;
14088;SDS011;7120;52.890;6.040;2023-05-29T09:47:55;15.17;;;4.57;;
14088;SDS011;7120;52.890;6.040;2023-05-29T09:50:24;16.20;;;4.20;;
14088;SDS011;7120;52.890;6.040;2023-05-29T09:52:50;14.70;;;4.43;;
14088;SDS011;7120;52.890;6.040;2023-05-29T09:55:18;14.43;;;4.50;;
14088;SDS011;7120;52.890;6.040;2023-05-29T09:57:48;16.77;;;4.90;;
14088;SDS011;7120;52.890;6.040;2023-05-29T10:00:16;15.60;;;3.60;;
14088;SDS011;7120;52.890;6.040;2023-05-29T10:02:42;16.27;;;4.00;;
14088;SDS011;7120;52.890;6.040;2023-05-29T10:05:07;12.10;;;4.07;;
14088;SDS011;7120;52.890;6.040;2023-05-29T10:07:35;16.30;;;4.17;;
14088;SDS011;7120;52.890;6.040;2023-05-29T10:10:02;17.03;;;4.80;;
14088;SDS011;7120;52.890;6.040;2023-05-29T10:12:30;13.60;;;4.03;;
14088;SDS011;7120;52.890;6.040;2023-05-29T10:14:59;12.20;;;4.10;;
14088;SDS011;7120;52.890;6.040;2023-05-29T10:17:26;8.47;;;3.27;;
14088;SDS011;7120;52.890;6.040;2023-05-29T10:19:57;11.47;;;3.60;;
14088;SDS011;7120;52.890;6.040;2023-05-29T10:22:31;11.07;;;3.60;;
14088;SDS011;7120;52.890;6.040;2023-05-29T10:24:57;13.87;;;4.07;;
14088;SDS011;7120;52.890;6.040;2023-05-29T10:27:23;13.23;;;4.03;;
14088;SDS011;7120;52.890;6.040;2023-05-29T10:29:49;12.97;;;4.13;;
14088;SDS011;7120;52.890;6.040;2023-05-29T10:33:25;11.63;;;4.10;;
14088;SDS011;7120;52.890;6.040;2023-05-29T10:38:09;19.83;;;4.87;;
14088;SDS011;7120;52.890;6.040;2023-05-29T10:40:37;14.60;;;4.57;;
14088;SDS011;7120;52.890;6.040;2023-05-29T10:43:02;14.67;;;4.07;;
14088;SDS011;7120;52.890;6.040;2023-05-29T10:47:53;10.90;;;4.03;;
14088;SDS011;7120;52.890;6.040;2023-05-29T10:50:34;13.07;;;4.17;;
14088;SDS011;7120;52.890;6.040;2023-05-29T10:53:01;10.80;;;3.97;;
14088;SDS011;7120;52.890;6.040;2023-05-29T10:55:39;14.27;;;4.83;;
14088;SDS011;7120;52.890;6.040;2023-05-29T10:58:06;15.27;;;4.30;;
14088;SDS011;7120;52.890;6.040;2023-05-29T11:00:43;14.97;;;4.53;;
14088;SDS011;7120;52.890;6.040;2023-05-29T11:03:12;12.83;;;3.93;;
14088;SDS011;7120;52.890;6.040;2023-05-29T11:08:41;15.00;;;5.00;;
14088;SDS011;7120;52.890;6.040;2023-05-29T11:13:52;15.57;;;4.57;;
14088;SDS011;7120;52.890;6.040;2023-05-29T11:18:53;12.50;;;4.40;;
14088;SDS011;7120;52.890;6.040;2023-05-29T11:23:52;15.63;;;4.50;;
14088;SDS011;7120;52.890;6.040;2023-05-29T11:26:22;13.17;;;4.43;;
14088;SDS011;7120;52.890;6.040;2023-05-29T11:28:48;11.77;;;3.97;;
14088;SDS011;7120;52.890;6.040;2023-05-29T11:31:14;12.07;;;3.73;;
14088;SDS011;7120;52.890;6.040;2023-05-29T11:33:41;11.20;;;3.97;;
14088;SDS011;7120;52.890;6.040;2023-05-29T11:36:19;10.37;;;3.87;;
14088;SDS011;7120;52.890;6.040;2023-05-29T11:38:46;9.93;;;3.60;;
14088;SDS011;7120;52.890;6.040;2023-05-29T11:41:12;12.50;;;4.13;;
14088;SDS011;7120;52.890;6.040;2023-05-29T11:43:37;9.97;;;3.83;;
14088;SDS011;7120;52.890;6.040;2023-05-29T11:46:13;10.07;;;3.57;;
14088;SDS011;7120;52.890;6.040;2023-05-29T11:48:46;10.47;;;4.00;;
14088;SDS011;7120;52.890;6.040;2023-05-29T11:51:12;10.83;;;3.60;;
14088;SDS011;7120;52.890;6.040;2023-05-29T11:53:40;12.60;;;4.57;;
14088;SDS011;7120;52.890;6.040;2023-05-29T11:56:07;12.07;;;3.97;;
14088;SDS011;7120;52.890;6.040;2023-05-29T11:58:35;9.87;;;4.03;;
14088;SDS011;7120;52.890;6.040;2023-05-29T12:01:01;9.93;;;3.77;;
14088;SDS011;7120;52.890;6.040;2023-05-29T12:03:27;9.63;;;3.93;;
14088;SDS011;7120;52.890;6.040;2023-05-29T12:05:52;12.73;;;3.80;;
14088;SDS011;7120;52.890;6.040;2023-05-29T12:08:23;12.97;;;3.80;;
14088;SDS011;7120;52.890;6.040;2023-05-29T12:10:50;11.97;;;4.10;;
14088;SDS011;7120;52.890;6.040;2023-05-29T12:13:21;12.07;;;4.27;;
14088;SDS011;7120;52.890;6.040;2023-05-29T12:15:47;12.17;;;4.10;;
14088;SDS011;7120;52.890;6.040;2023-05-29T12:18:14;11.13;;;3.93;;
14088;SDS011;7120;52.890;6.040;2023-05-29T12:20:40;7.77;;;3.73;;
14088;SDS011;7120;52.890;6.040;2023-05-29T12:23:06;11.63;;;3.70;;
14088;SDS011;7120;52.890;6.040;2023-05-29T12:25:33;10.63;;;3.57;;
14088;SDS011;7120;52.890;6.040;2023-05-29T12:28:01;8.40;;;3.33;;
14088;SDS011;7120;52.890;6.040;2023-05-29T12:30:27;11.90;;;3.43;;
14088;SDS011;7120;52.890;6.040;2023-05-29T12:32:53;11.90;;;3.70;;
14088;SDS011;7120;52.890;6.040;2023-05-29T12:37:46;13.97;;;4.43;;
14088;SDS011;7120;52.890;6.040;2023-05-29T12:42:53;9.73;;;3.80;;
14088;SDS011;7120;52.890;6.040;2023-05-29T12:45:24;12.17;;;3.43;;
14088;SDS011;7120;52.890;6.040;2023-05-29T12:50:26;11.43;;;3.23;;
14088;SDS011;7120;52.890;6.040;2023-05-29T12:52:54;14.63;;;5.30;;
14088;SDS011;7120;52.890;6.040;2023-05-29T12:55:26;9.00;;;3.50;;
14088;SDS011;7120;52.890;6.040;2023-05-29T12:57:53;10.03;;;3.63;;
14088;SDS011;7120;52.890;6.040;2023-05-29T13:00:19;13.97;;;3.33;;
14088;SDS011;7120;52.890;6.040;2023-05-29T13:02:46;12.13;;;3.80;;
14088;SDS011;7120;52.890;6.040;2023-05-29T13:05:12;11.30;;;3.43;;
14088;SDS011;7120;52.890;6.040;2023-05-29T13:07:37;9.30;;;3.73;;
14088;SDS011;7120;52.890;6.040;2023-05-29T13:10:03;11.40;;;3.57;;
14088;SDS011;7120;52.890;6.040;2023-05-29T13:12:29;7.13;;;3.43;;
14088;SDS011;7120;52.890;6.040;2023-05-29T13:14:54;9.10;;;3.30;;
14088;SDS011;7120;52.890;6.040;2023-05-29T13:17:21;11.43;;;3.47;;
14088;SDS011;7120;52.890;6.040;2023-05-29T13:19:47;11.43;;;3.27;;
14088;SDS011;7120;52.890;6.040;2023-05-29T13:22:12;11.60;;;3.53;;
14088;SDS011;7120;52.890;6.040;2023-05-29T13:24:37;9.80;;;3.90;;
14088;SDS011;7120;52.890;6.040;2023-05-29T13:27:03;12.03;;;3.40;;
14088;SDS011;7120;52.890;6.040;2023-05-29T13:29:30;12.07;;;6.87;;
14088;SDS011;7120;52.890;6.040;2023-05-29T13:31:56;11.23;;;3.97;;
14088;SDS011;7120;52.890;6.040;2023-05-29T13:34:21;9.70;;;3.10;;
14088;SDS011;7120;52.890;6.040;2023-05-29T13:36:49;7.93;;;2.97;;
14088;SDS011;7120;52.890;6.040;2023-05-29T13:39:14;13.07;;;3.70;;
14088;SDS011;7120;52.890;6.040;2023-05-29T13:41:40;6.97;;;3.07;;
14088;SDS011;7120;52.890;6.040;2023-05-29T13:44:05;10.63;;;3.20;;
14088;SDS011;7120;52.890;6.040;2023-05-29T13:46:31;8.20;;;2.90;;
14088;SDS011;7120;52.890;6.040;2023-05-29T13:48:56;6.70;;;3.00;;
14088;SDS011;7120;52.890;6.040;2023-05-29T13:51:21;10.63;;;3.20;;
14088;SDS011;7120;52.890;6.040;2023-05-29T13:53:47;10.33;;;3.60;;
14088;SDS011;7120;52.890;6.040;2023-05-29T13:56:12;11.63;;;3.70;;
14088;SDS011;7120;52.890;6.040;2023-05-29T13:58:37;11.10;;;3.80;;
14088;SDS011;7120;52.890;6.040;2023-05-29T14:01:03;10.63;;;3.90;;
14088;SDS011;7120;52.890;6.040;2023-05-29T14:03:28;7.97;;;3.30;;
14088;SDS011;7120;52.890;6.040;2023-05-29T14:05:54;10.10;;;3.07;;
14088;SDS011;7120;52.890;6.040;2023-05-29T14:08:19;9.03;;;2.80;;
14088;SDS011;7120;52.890;6.040;2023-05-29T14:10:45;9.43;;;3.00;;
14088;SDS011;7120;52.890;6.040;2023-05-29T14:13:10;8.33;;;3.00;;
14088;SDS011;7120;52.890;6.040;2023-05-29T14:15:36;8.13;;;2.87;;
14088;SDS011;7120;52.890;6.040;2023-05-29T14:18:02;10.60;;;3.30;;
14088;SDS011;7120;52.890;6.040;2023-05-29T14:20:27;8.83;;;3.03;;
14088;SDS011;7120;52.890;6.040;2023-05-29T14:22:53;10.77;;;3.33;;
14088;SDS011;7120;52.890;6.040;2023-05-29T14:25:19;9.33;;;2.80;;
14088;SDS011;7120;52.890;6.040;2023-05-29T14:27:45;9.50;;;3.10;;
14088;SDS011;7120;52.890;6.040;2023-05-29T14:30:10;10.40;;;2.93;;
14088;SDS011;7120;52.890;6.040;2023-05-29T14:32:36;10.13;;;3.23;;
14088;SDS011;7120;52.890;6.040;2023-05-29T14:35:02;8.93;;;3.20;;
14088;SDS011;7120;52.890;6.040;2023-05-29T14:37:27;9.03;;;3.40;;
14088;SDS011;7120;52.890;6.040;2023-05-29T14:39:52;11.10;;;3.23;;
14088;SDS011;7120;52.890;6.040;2023-05-29T14:42:18;8.03;;;2.83;;
14088;SDS011;7120;52.890;6.040;2023-05-29T14:44:43;9.40;;;2.93;;
14088;SDS011;7120;52.890;6.040;2023-05-29T14:47:09;7.00;;;2.93;;
14088;SDS011;7120;52.890;6.040;2023-05-29T14:49:35;5.97;;;2.50;;
14088;SDS011;7120;52.890;6.040;2023-05-29T14:52:01;9.60;;;2.80;;
14088;SDS011;7120;52.890;6.040;2023-05-29T14:54:29;6.60;;;3.10;;
14088;SDS011;7120;52.890;6.040;2023-05-29T14:56:54;8.60;;;2.70;;
14088;SDS011;7120;52.890;6.040;2023-05-29T14:59:20;9.27;;;3.23;;
14088;SDS011;7120;52.890;6.040;2023-05-29T15:01:46;9.30;;;2.90;;
14088;SDS011;7120;52.890;6.040;2023-05-29T15:04:11;8.10;;;2.87;;
14088;SDS011;7120;52.890;6.040;2023-05-29T15:06:38;9.20;;;2.70;;
14088;SDS011;7120;52.890;6.040;2023-05-29T15:09:03;8.63;;;2.67;;
14088;SDS011;7120;52.890;6.040;2023-05-29T15:11:29;9.77;;;3.03;;
14088;SDS011;7120;52.890;6.040;2023-05-29T15:13:55;7.27;;;2.93;;
14088;SDS011;7120;52.890;6.040;2023-05-29T15:16:21;11.57;;;2.80;;
14088;SDS011;7120;52.890;6.040;2023-05-29T15:18:46;11.73;;;3.00;;
14088;SDS011;7120;52.890;6.040;2023-05-29T15:21:12;8.83;;;3.20;;